Ourinhos, Brazil
Current Conditions -  °F | °C
As of 6:00 AM on Saturday 25 Oct 2014 (Local Time) from SBBU Reporting Station
Overcast Overcast  
Wind Chill: 70°   Ceiling: 10000
Heat Index: 70°   Visibility: 5mi
Dew Point: 68°   Wind: 1mph
Humidity: 94%   Direction: 80°E
Pressure: 29.94"   Gusts: NA
Location:  22.97°S, 49.87°W
Report Text: SBBU 250800Z 08001KT 8000 FEW025 OVC100 21/20 Q1014
Loading
Personal Weather Stations






























Interactive Weather Map
Tropical Storm Tracking
New forecast layout! Learn more

10-Day Weather Forecast

Advertisements
Track Severe Weather on mobile